sensor_id;sensor_type;location;lat;lon;timestamp;temperature;humidity
72865;DHT22;61000;48.120;11.548;2023-09-08T00:00:13;16.60;99.90
72865;DHT22;61000;48.120;11.548;2023-09-08T00:02:40;16.60;99.90
72865;DHT22;61000;48.120;11.548;2023-09-08T00:05:07;16.50;99.90
72865;DHT22;61000;48.120;11.548;2023-09-08T00:07:34;16.40;99.90
72865;DHT22;61000;48.120;11.548;2023-09-08T00:10:01;16.50;99.90
72865;DHT22;61000;48.120;11.548;2023-09-08T00:12:29;16.40;99.90
72865;DHT22;61000;48.120;11.548;2023-09-08T00:14:56;16.30;99.90
72865;DHT22;61000;48.120;11.548;2023-09-08T00:17:23;16.40;99.90
72865;DHT22;61000;48.120;11.548;2023-09-08T00:19:50;16.40;99.90
72865;DHT22;61000;48.120;11.548;2023-09-08T00:22:17;16.40;99.90
72865;DHT22;61000;48.120;11.548;2023-09-08T00:24:43;16.20;99.90
72865;DHT22;61000;48.120;11.548;2023-09-08T00:27:09;16.20;99.90
72865;DHT22;61000;48.120;11.548;2023-09-08T00:29:38;16.20;99.90
72865;DHT22;61000;48.120;11.548;2023-09-08T00:32:05;16.20;99.90
72865;DHT22;61000;48.120;11.548;2023-09-08T00:34:32;16.20;99.90
72865;DHT22;61000;48.120;11.548;2023-09-08T00:36:59;16.40;99.90
72865;DHT22;61000;48.120;11.548;2023-09-08T00:39:30;16.30;99.90
72865;DHT22;61000;48.120;11.548;2023-09-08T00:41:57;16.20;99.90
72865;DHT22;61000;48.120;11.548;2023-09-08T00:44:24;16.20;99.90
72865;DHT22;61000;48.120;11.548;2023-09-08T00:46:52;16.20;99.90
72865;DHT22;61000;48.120;11.548;2023-09-08T00:49:19;16.10;99.90
72865;DHT22;61000;48.120;11.548;2023-09-08T00:51:46;16.10;99.90
72865;DHT22;61000;48.120;11.548;2023-09-08T00:54:13;16.10;99.90
72865;DHT22;61000;48.120;11.548;2023-09-08T00:56:41;16.00;99.90
72865;DHT22;61000;48.120;11.548;2023-09-08T00:59:09;16.00;99.90
72865;DHT22;61000;48.120;11.548;2023-09-08T01:01:36;15.90;99.90
72865;DHT22;61000;48.120;11.548;2023-09-08T01:04:04;15.90;99.90
72865;DHT22;61000;48.120;11.548;2023-09-08T01:06:32;15.90;99.90
72865;DHT22;61000;48.120;11.548;2023-09-08T01:08:59;15.80;99.90
72865;DHT22;61000;48.120;11.548;2023-09-08T01:11:26;15.80;99.90
72865;DHT22;61000;48.120;11.548;2023-09-08T01:13:54;15.90;99.90
72865;DHT22;61000;48.120;11.548;2023-09-08T01:16:21;15.80;99.90
72865;DHT22;61000;48.120;11.548;2023-09-08T01:18:48;15.80;99.90
72865;DHT22;61000;48.120;11.548;2023-09-08T01:21:39;15.60;99.90
72865;DHT22;61000;48.120;11.548;2023-09-08T01:24:31;15.50;99.90
72865;DHT22;61000;48.120;11.548;2023-09-08T01:27:05;15.50;99.90
72865;DHT22;61000;48.120;11.548;2023-09-08T01:29:34;15.50;99.90
72865;DHT22;61000;48.120;11.548;2023-09-08T01:32:01;15.50;99.90
72865;DHT22;61000;48.120;11.548;2023-09-08T01:34:30;15.50;99.90
72865;DHT22;61000;48.120;11.548;2023-09-08T01:36:57;15.40;99.90
72865;DHT22;61000;48.120;11.548;2023-09-08T01:39:26;15.40;99.90
72865;DHT22;61000;48.120;11.548;2023-09-08T01:41:53;15.40;99.90
72865;DHT22;61000;48.120;11.548;2023-09-08T01:44:22;15.40;99.90
72865;DHT22;61000;48.120;11.548;2023-09-08T01:46:49;15.40;99.90
72865;DHT22;61000;48.120;11.548;2023-09-08T01:49:18;15.40;99.90
72865;DHT22;61000;48.120;11.548;2023-09-08T01:51:45;15.40;99.90
72865;DHT22;61000;48.120;11.548;2023-09-08T01:54:11;15.40;99.90
72865;DHT22;61000;48.120;11.548;2023-09-08T01:56:38;15.40;99.90
72865;DHT22;61000;48.120;11.548;2023-09-08T01:59:06;15.30;99.90
72865;DHT22;61000;48.120;11.548;2023-09-08T02:01:34;15.30;99.90
72865;DHT22;61000;48.120;11.548;2023-09-08T02:04:02;15.30;99.90
72865;DHT22;61000;48.120;11.548;2023-09-08T02:06:29;15.20;99.90
72865;DHT22;61000;48.120;11.548;2023-09-08T02:08:56;15.30;99.90
72865;DHT22;61000;48.120;11.548;2023-09-08T02:11:23;15.40;99.90
72865;DHT22;61000;48.120;11.548;2023-09-08T02:13:49;15.40;99.90
72865;DHT22;61000;48.120;11.548;2023-09-08T02:16:16;15.30;99.90
72865;DHT22;61000;48.120;11.548;2023-09-08T02:18:45;15.20;99.90
72865;DHT22;61000;48.120;11.548;2023-09-08T02:21:12;15.20;99.90
72865;DHT22;61000;48.120;11.548;2023-09-08T02:23:39;15.20;99.90
72865;DHT22;61000;48.120;11.548;2023-09-08T02:26:06;15.20;99.90
72865;DHT22;61000;48.120;11.548;2023-09-08T02:28:33;15.20;99.90
72865;DHT22;61000;48.120;11.548;2023-09-08T02:31:00;15.10;99.90
72865;DHT22;61000;48.120;11.548;2023-09-08T02:33:28;15.20;99.90
72865;DHT22;61000;48.120;11.548;2023-09-08T02:36:01;15.10;99.90
72865;DHT22;61000;48.120;11.548;2023-09-08T02:38:28;15.10;99.90
72865;DHT22;61000;48.120;11.548;2023-09-08T02:40:55;15.10;99.90
72865;DHT22;61000;48.120;11.548;2023-09-08T02:43:22;15.10;99.90
72865;DHT22;61000;48.120;11.548;2023-09-08T02:45:49;15.10;99.90
72865;DHT22;61000;48.120;11.548;2023-09-08T02:48:18;15.20;99.90
72865;DHT22;61000;48.120;11.548;2023-09-08T02:50:45;15.10;99.90
72865;DHT22;61000;48.120;11.548;2023-09-08T02:53:13;15.10;99.90
72865;DHT22;61000;48.120;11.548;2023-09-08T02:55:40;15.10;99.90
72865;DHT22;61000;48.120;11.548;2023-09-08T02:58:06;15.10;99.90
72865;DHT22;61000;48.120;11.548;2023-09-08T03:00:33;15.00;99.90
72865;DHT22;61000;48.120;11.548;2023-09-08T03:03:00;15.00;99.90
72865;DHT22;61000;48.120;11.548;2023-09-08T03:05:27;15.00;99.90
72865;DHT22;61000;48.120;11.548;2023-09-08T03:07:54;15.00;99.90
72865;DHT22;61000;48.120;11.548;2023-09-08T04:11:49;14.30;99.90
72865;DHT22;61000;48.120;11.548;2023-09-08T04:14:16;14.30;99.90
72865;DHT22;61000;48.120;11.548;2023-09-08T04:16:43;14.30;99.90
72865;DHT22;61000;48.120;11.548;2023-09-08T04:19:11;14.20;99.90
72865;DHT22;61000;48.120;11.548;2023-09-08T04:21:38;14.30;99.90
72865;DHT22;61000;48.120;11.548;2023-09-08T04:24:08;14.30;99.90
72865;DHT22;61000;48.120;11.548;2023-09-08T04:26:36;14.20;99.90
72865;DHT22;61000;48.120;11.548;2023-09-08T04:29:03;14.30;99.90
72865;DHT22;61000;48.120;11.548;2023-09-08T04:31:30;14.30;99.90
72865;DHT22;61000;48.120;11.548;2023-09-08T04:33:57;14.50;99.90
72865;DHT22;61000;48.120;11.548;2023-09-08T04:36:25;14.40;99.90
72865;DHT22;61000;48.120;11.548;2023-09-08T06:15:07;15.20;99.90
72865;DHT22;61000;48.120;11.548;2023-09-08T06:17:35;15.30;99.90
72865;DHT22;61000;48.120;11.548;2023-09-08T06:20:04;15.50;99.90
72865;DHT22;61000;48.120;11.548;2023-09-08T06:22:32;15.40;99.90
72865;DHT22;61000;48.120;11.548;2023-09-08T06:25:00;15.60;99.90
72865;DHT22;61000;48.120;11.548;2023-09-08T06:27:27;15.70;99.90
72865;DHT22;61000;48.120;11.548;2023-09-08T06:37:19;15.90;99.90
72865;DHT22;61000;48.120;11.548;2023-09-08T08:15:50;19.80;99.90
72865;DHT22;61000;48.120;11.548;2023-09-08T08:25:40;20.30;99.90
72865;DHT22;61000;48.120;11.548;2023-09-08T08:28:06;20.40;99.90
72865;DHT22;61000;48.120;11.548;2023-09-08T08:30:33;20.40;99.90
72865;DHT22;61000;48.120;11.548;2023-09-08T08:33:01;20.50;99.90
72865;DHT22;61000;48.120;11.548;2023-09-08T08:35:29;20.50;99.90
72865;DHT22;61000;48.120;11.548;2023-09-08T08:37:59;20.70;99.90
72865;DHT22;61000;48.120;11.548;2023-09-08T08:40:26;20.90;99.90
72865;DHT22;61000;48.120;11.548;2023-09-08T08:42:55;21.00;99.90
72865;DHT22;61000;48.120;11.548;2023-09-08T08:45:22;21.20;99.90
72865;DHT22;61000;48.120;11.548;2023-09-08T08:47:50;21.20;99.90
72865;DHT22;61000;48.120;11.548;2023-09-08T08:50:17;21.20;99.90
72865;DHT22;61000;48.120;11.548;2023-09-08T08:52:45;21.20;99.90
72865;DHT22;61000;48.120;11.548;2023-09-08T08:55:13;21.40;99.90
72865;DHT22;61000;48.120;11.548;2023-09-08T08:57:41;21.40;99.90
72865;DHT22;61000;48.120;11.548;2023-09-08T09:00:11;21.50;99.90
72865;DHT22;61000;48.120;11.548;2023-09-08T09:02:41;21.50;99.90
72865;DHT22;61000;48.120;11.548;2023-09-08T09:05:11;21.90;99.90
72865;DHT22;61000;48.120;11.548;2023-09-08T09:07:39;22.00;99.90
72865;DHT22;61000;48.120;11.548;2023-09-08T09:10:07;22.10;99.90
72865;DHT22;61000;48.120;11.548;2023-09-08T09:12:37;22.60;99.90
72865;DHT22;61000;48.120;11.548;2023-09-08T09:15:06;23.20;99.90
72865;DHT22;61000;48.120;11.548;2023-09-08T09:17:34;23.70;99.90
72865;DHT22;61000;48.120;11.548;2023-09-08T09:20:13;24.30;99.90
72865;DHT22;61000;48.120;11.548;2023-09-08T09:22:40;25.40;98.70
72865;DHT22;61000;48.120;11.548;2023-09-08T09:25:08;26.60;96.60
72865;DHT22;61000;48.120;11.548;2023-09-08T09:30:07;27.90;91.10
72865;DHT22;61000;48.120;11.548;2023-09-08T09:32:34;28.40;90.10
72865;DHT22;61000;48.120;11.548;2023-09-08T09:35:01;29.10;87.40
72865;DHT22;61000;48.120;11.548;2023-09-08T09:37:30;28.70;86.70
72865;DHT22;61000;48.120;11.548;2023-09-08T09:39:56;29.10;86.40
72865;DHT22;61000;48.120;11.548;2023-09-08T09:42:23;28.90;87.10
72865;DHT22;61000;48.120;11.548;2023-09-08T09:44:52;29.40;85.90
72865;DHT22;61000;48.120;11.548;2023-09-08T09:47:19;29.80;85.10
72865;DHT22;61000;48.120;11.548;2023-09-08T09:49:47;29.80;82.90
72865;DHT22;61000;48.120;11.548;2023-09-08T09:52:20;30.10;82.10
72865;DHT22;61000;48.120;11.548;2023-09-08T09:54:48;30.80;94.00
72865;DHT22;61000;48.120;11.548;2023-09-08T09:59:47;30.80;77.10
72865;DHT22;61000;48.120;11.548;2023-09-08T10:02:18;30.60;77.70
72865;DHT22;61000;48.120;11.548;2023-09-08T10:04:47;30.80;78.90
72865;DHT22;61000;48.120;11.548;2023-09-08T10:07:15;31.20;75.70
72865;DHT22;61000;48.120;11.548;2023-09-08T10:09:43;30.30;75.90
72865;DHT22;61000;48.120;11.548;2023-09-08T10:12:13;30.40;77.60
72865;DHT22;61000;48.120;11.548;2023-09-08T10:14:42;30.70;75.80
72865;DHT22;61000;48.120;11.548;2023-09-08T10:17:13;30.40;75.40
72865;DHT22;61000;48.120;11.548;2023-09-08T10:19:44;30.00;78.20
72865;DHT22;61000;48.120;11.548;2023-09-08T10:22:15;29.80;78.20
72865;DHT22;61000;48.120;11.548;2023-09-08T10:24:46;29.70;79.00
72865;DHT22;61000;48.120;11.548;2023-09-08T10:27:15;29.60;79.10
72865;DHT22;61000;48.120;11.548;2023-09-08T10:29:45;29.30;78.10
72865;DHT22;61000;48.120;11.548;2023-09-08T10:32:12;28.80;78.60
72865;DHT22;61000;48.120;11.548;2023-09-08T10:34:39;28.60;78.80
72865;DHT22;61000;48.120;11.548;2023-09-08T10:37:19;28.30;80.20
72865;DHT22;61000;48.120;11.548;2023-09-08T10:39:46;28.00;80.50
72865;DHT22;61000;48.120;11.548;2023-09-08T10:42:24;28.00;81.20
72865;DHT22;61000;48.120;11.548;2023-09-08T10:44:59;28.20;81.90
72865;DHT22;61000;48.120;11.548;2023-09-08T10:47:35;28.00;82.90
72865;DHT22;61000;48.120;11.548;2023-09-08T10:50:07;27.90;83.70
72865;DHT22;61000;48.120;11.548;2023-09-08T10:52:35;28.00;83.90
72865;DHT22;61000;48.120;11.548;2023-09-08T10:55:03;27.90;84.20
72865;DHT22;61000;48.120;11.548;2023-09-08T10:57:33;27.90;84.40
72865;DHT22;61000;48.120;11.548;2023-09-08T11:00:02;27.80;84.90
72865;DHT22;61000;48.120;11.548;2023-09-08T11:02:35;27.70;86.30
72865;DHT22;61000;48.120;11.548;2023-09-08T11:05:02;27.70;84.50
72865;DHT22;61000;48.120;11.548;2023-09-08T11:07:30;27.70;83.40
72865;DHT22;61000;48.120;11.548;2023-09-08T11:09:59;27.90;83.80
72865;DHT22;61000;48.120;11.548;2023-09-08T11:12:27;27.90;84.80
72865;DHT22;61000;48.120;11.548;2023-09-08T11:14:54;27.80;85.00
72865;DHT22;61000;48.120;11.548;2023-09-08T11:17:24;27.70;85.60
72865;DHT22;61000;48.120;11.548;2023-09-08T11:19:52;27.60;85.60
72865;DHT22;61000;48.120;11.548;2023-09-08T11:22:21;27.60;86.10
72865;DHT22;61000;48.120;11.548;2023-09-08T11:24:49;27.50;85.40
72865;DHT22;61000;48.120;11.548;2023-09-08T11:27:18;27.40;84.90
72865;DHT22;61000;48.120;11.548;2023-09-08T11:29:46;27.40;86.10
72865;DHT22;61000;48.120;11.548;2023-09-08T11:32:13;27.70;85.90
72865;DHT22;61000;48.120;11.548;2023-09-08T11:34:40;27.60;84.90
72865;DHT22;61000;48.120;11.548;2023-09-08T11:37:08;27.40;84.70
72865;DHT22;61000;48.120;11.548;2023-09-08T11:39:37;27.60;85.10
72865;DHT22;61000;48.120;11.548;2023-09-08T11:42:05;27.50;85.20
72865;DHT22;61000;48.120;11.548;2023-09-08T11:44:33;27.40;87.10
72865;DHT22;61000;48.120;11.548;2023-09-08T11:47:01;27.30;87.20
72865;DHT22;61000;48.120;11.548;2023-09-08T11:49:34;27.30;86.80
72865;DHT22;61000;48.120;11.548;2023-09-08T11:52:01;27.50;87.30
72865;DHT22;61000;48.120;11.548;2023-09-08T11:54:29;27.40;86.60
72865;DHT22;61000;48.120;11.548;2023-09-08T11:56:57;27.50;86.50
72865;DHT22;61000;48.120;11.548;2023-09-08T11:59:27;27.60;85.80
72865;DHT22;61000;48.120;11.548;2023-09-08T12:01:56;27.70;85.90
72865;DHT22;61000;48.120;11.548;2023-09-08T12:04:23;27.90;85.30
72865;DHT22;61000;48.120;11.548;2023-09-08T12:06:52;27.90;84.50
72865;DHT22;61000;48.120;11.548;2023-09-08T12:09:21;28.00;84.70
72865;DHT22;61000;48.120;11.548;2023-09-08T12:11:48;28.10;84.40
72865;DHT22;61000;48.120;11.548;2023-09-08T12:14:16;28.00;84.20
72865;DHT22;61000;48.120;11.548;2023-09-08T12:16:43;27.90;84.30
72865;DHT22;61000;48.120;11.548;2023-09-08T12:19:29;27.90;85.10
72865;DHT22;61000;48.120;11.548;2023-09-08T12:21:58;27.90;85.40
72865;DHT22;61000;48.120;11.548;2023-09-08T12:24:56;27.90;85.40
72865;DHT22;61000;48.120;11.548;2023-09-08T12:27:24;28.00;83.90
72865;DHT22;61000;48.120;11.548;2023-09-08T12:29:55;28.00;84.50
72865;DHT22;61000;48.120;11.548;2023-09-08T12:32:22;28.00;84.20
72865;DHT22;61000;48.120;11.548;2023-09-08T12:34:51;27.90;84.30
72865;DHT22;61000;48.120;11.548;2023-09-08T12:37:22;27.90;84.90
72865;DHT22;61000;48.120;11.548;2023-09-08T12:39:49;28.10;84.20
72865;DHT22;61000;48.120;11.548;2023-09-08T12:42:18;28.10;84.90
72865;DHT22;61000;48.120;11.548;2023-09-08T12:44:45;28.20;85.40
72865;DHT22;61000;48.120;11.548;2023-09-08T12:47:12;28.10;84.70
72865;DHT22;61000;48.120;11.548;2023-09-08T12:49:39;28.10;85.50
72865;DHT22;61000;48.120;11.548;2023-09-08T12:52:07;28.00;85.30
72865;DHT22;61000;48.120;11.548;2023-09-08T12:54:35;27.90;85.30
72865;DHT22;61000;48.120;11.548;2023-09-08T12:57:02;28.00;85.20
72865;DHT22;61000;48.120;11.548;2023-09-08T12:59:29;28.10;85.50
72865;DHT22;61000;48.120;11.548;2023-09-08T13:01:56;28.30;85.00
72865;DHT22;61000;48.120;11.548;2023-09-08T13:04:23;28.50;85.20
72865;DHT22;61000;48.120;11.548;2023-09-08T13:06:51;28.60;84.20
72865;DHT22;61000;48.120;11.548;2023-09-08T13:09:19;28.70;83.10
72865;DHT22;61000;48.120;11.548;2023-09-08T13:11:46;28.80;83.70
72865;DHT22;61000;48.120;11.548;2023-09-08T13:14:13;28.90;82.20
72865;DHT22;61000;48.120;11.548;2023-09-08T13:16:40;28.80;83.20
72865;DHT22;61000;48.120;11.548;2023-09-08T13:19:07;28.90;81.70
72865;DHT22;61000;48.120;11.548;2023-09-08T13:21:34;28.90;81.70
72865;DHT22;61000;48.120;11.548;2023-09-08T13:24:05;28.90;81.40
72865;DHT22;61000;48.120;11.548;2023-09-08T13:26:34;28.80;82.20
72865;DHT22;61000;48.120;11.548;2023-09-08T13:29:00;28.90;83.10
72865;DHT22;61000;48.120;11.548;2023-09-08T13:31:28;28.90;81.80
72865;DHT22;61000;48.120;11.548;2023-09-08T13:33:55;28.90;82.20
72865;DHT22;61000;48.120;11.548;2023-09-08T13:36:22;29.00;82.10
72865;DHT22;61000;48.120;11.548;2023-09-08T13:38:49;29.00;81.90
72865;DHT22;61000;48.120;11.548;2023-09-08T13:41:16;29.00;81.60
72865;DHT22;61000;48.120;11.548;2023-09-08T13:43:44;29.10;81.50
72865;DHT22;61000;48.120;11.548;2023-09-08T13:46:11;29.10;80.50
72865;DHT22;61000;48.120;11.548;2023-09-08T13:48:38;29.20;80.20
72865;DHT22;61000;48.120;11.548;2023-09-08T13:51:05;29.10;79.90
72865;DHT22;61000;48.120;11.548;2023-09-08T13:53:32;28.80;80.20
72865;DHT22;61000;48.120;11.548;2023-09-08T13:55:59;28.90;80.00
72865;DHT22;61000;48.120;11.548;2023-09-08T13:58:26;29.00;80.50
72865;DHT22;61000;48.120;11.548;2023-09-08T14:00:54;28.90;81.10
72865;DHT22;61000;48.120;11.548;2023-09-08T14:03:21;29.10;79.70
72865;DHT22;61000;48.120;11.548;2023-09-08T14:05:47;29.00;79.60
72865;DHT22;61000;48.120;11.548;2023-09-08T14:08:14;28.90;78.80
72865;DHT22;61000;48.120;11.548;2023-09-08T14:10:41;29.10;79.80
72865;DHT22;61000;48.120;11.548;2023-09-08T14:13:08;28.90;78.90
72865;DHT22;61000;48.120;11.548;2023-09-08T14:15:36;28.90;79.40
72865;DHT22;61000;48.120;11.548;2023-09-08T14:18:04;28.90;79.80
72865;DHT22;61000;48.120;11.548;2023-09-08T14:20:31;29.00;81.00
72865;DHT22;61000;48.120;11.548;2023-09-08T14:22:58;29.00;80.50
72865;DHT22;61000;48.120;11.548;2023-09-08T14:25:25;29.00;80.30
72865;DHT22;61000;48.120;11.548;2023-09-08T14:27:52;29.10;79.80
72865;DHT22;61000;48.120;11.548;2023-09-08T14:30:19;29.00;79.60
72865;DHT22;61000;48.120;11.548;2023-09-08T14:32:46;28.90;79.00
72865;DHT22;61000;48.120;11.548;2023-09-08T14:35:14;28.90;79.50
72865;DHT22;61000;48.120;11.548;2023-09-08T14:37:41;29.00;79.40
72865;DHT22;61000;48.120;11.548;2023-09-08T14:40:09;29.00;80.60
72865;DHT22;61000;48.120;11.548;2023-09-08T14:42:36;28.90;79.70
72865;DHT22;61000;48.120;11.548;2023-09-08T14:45:03;28.90;79.70
72865;DHT22;61000;48.120;11.548;2023-09-08T14:47:30;29.00;79.00
72865;DHT22;61000;48.120;11.548;2023-09-08T14:49:57;28.90;81.00
72865;DHT22;61000;48.120;11.548;2023-09-08T14:52:26;28.90;79.60
72865;DHT22;61000;48.120;11.548;2023-09-08T14:54:53;28.90;81.00
72865;DHT22;61000;48.120;11.548;2023-09-08T14:57:19;28.80;81.90
72865;DHT22;61000;48.120;11.548;2023-09-08T14:59:46;28.70;80.50
72865;DHT22;61000;48.120;11.548;2023-09-08T15:02:14;28.80;80.70
72865;DHT22;61000;48.120;11.548;2023-09-08T15:04:40;28.70;80.20
72865;DHT22;61000;48.120;11.548;2023-09-08T15:07:07;28.70;79.20
72865;DHT22;61000;48.120;11.548;2023-09-08T15:09:35;28.60;80.00
72865;DHT22;61000;48.120;11.548;2023-09-08T15:12:03;28.60;79.70
72865;DHT22;61000;48.120;11.548;2023-09-08T15:14:30;28.60;79.80
72865;DHT22;61000;48.120;11.548;2023-09-08T15:16:57;28.50;80.80
72865;DHT22;61000;48.120;11.548;2023-09-08T15:19:23;28.50;83.10
72865;DHT22;61000;48.120;11.548;2023-09-08T15:21:50;28.30;82.20
72865;DHT22;61000;48.120;11.548;2023-09-08T15:24:17;28.30;83.50
72865;DHT22;61000;48.120;11.548;2023-09-08T15:26:45;28.20;83.30
72865;DHT22;61000;48.120;11.548;2023-09-08T15:29:12;28.20;82.80
72865;DHT22;61000;48.120;11.548;2023-09-08T15:31:40;28.30;82.90
72865;DHT22;61000;48.120;11.548;2023-09-08T15:34:07;28.10;82.90
72865;DHT22;61000;48.120;11.548;2023-09-08T15:36:35;28.20;84.30
72865;DHT22;61000;48.120;11.548;2023-09-08T15:39:02;28.00;83.90
72865;DHT22;61000;48.120;11.548;2023-09-08T15:41:29;27.90;85.00
72865;DHT22;61000;48.120;11.548;2023-09-08T15:43:57;27.70;84.80
72865;DHT22;61000;48.120;11.548;2023-09-08T15:46:24;27.40;85.10
72865;DHT22;61000;48.120;11.548;2023-09-08T15:48:51;27.40;85.60
72865;DHT22;61000;48.120;11.548;2023-09-08T15:51:18;27.40;85.90
72865;DHT22;61000;48.120;11.548;2023-09-08T15:53:45;27.40;86.00
72865;DHT22;61000;48.120;11.548;2023-09-08T15:56:12;27.40;86.60
72865;DHT22;61000;48.120;11.548;2023-09-08T15:58:38;27.40;86.40
72865;DHT22;61000;48.120;11.548;2023-09-08T16:01:07;27.40;85.70
72865;DHT22;61000;48.120;11.548;2023-09-08T16:03:34;27.30;86.30
72865;DHT22;61000;48.120;11.548;2023-09-08T16:06:01;27.20;86.80
72865;DHT22;61000;48.120;11.548;2023-09-08T16:08:28;27.20;86.80
72865;DHT22;61000;48.120;11.548;2023-09-08T16:10:55;27.20;87.10
72865;DHT22;61000;48.120;11.548;2023-09-08T16:13:22;27.20;87.20
72865;DHT22;61000;48.120;11.548;2023-09-08T16:15:50;27.00;88.10
72865;DHT22;61000;48.120;11.548;2023-09-08T16:18:19;26.90;88.90
72865;DHT22;61000;48.120;11.548;2023-09-08T16:20:45;26.90;88.40
72865;DHT22;61000;48.120;11.548;2023-09-08T16:23:12;26.90;89.00
72865;DHT22;61000;48.120;11.548;2023-09-08T16:25:39;26.80;89.50
72865;DHT22;61000;48.120;11.548;2023-09-08T16:28:06;26.70;89.60
72865;DHT22;61000;48.120;11.548;2023-09-08T16:30:34;26.70;90.00
72865;DHT22;61000;48.120;11.548;2023-09-08T16:33:01;26.60;90.40
72865;DHT22;61000;48.120;11.548;2023-09-08T16:35:29;26.50;90.50
72865;DHT22;61000;48.120;11.548;2023-09-08T16:37:56;26.40;90.80
72865;DHT22;61000;48.120;11.548;2023-09-08T16:40:23;26.20;91.30
72865;DHT22;61000;48.120;11.548;2023-09-08T16:42:51;26.10;91.60
72865;DHT22;61000;48.120;11.548;2023-09-08T16:45:18;26.00;91.90
72865;DHT22;61000;48.120;11.548;2023-09-08T16:47:45;26.00;92.00
72865;DHT22;61000;48.120;11.548;2023-09-08T16:50:12;25.90;92.20
72865;DHT22;61000;48.120;11.548;2023-09-08T16:52:40;25.90;92.40
72865;DHT22;61000;48.120;11.548;2023-09-08T16:55:07;25.80;92.50
72865;DHT22;61000;48.120;11.548;2023-09-08T16:57:37;25.70;92.70
72865;DHT22;61000;48.120;11.548;2023-09-08T17:00:05;25.70;92.80
72865;DHT22;61000;48.120;11.548;2023-09-08T17:02:33;25.70;92.80
72865;DHT22;61000;48.120;11.548;2023-09-08T17:05:01;25.60;93.00
72865;DHT22;61000;48.120;11.548;2023-09-08T17:07:28;25.50;93.30
72865;DHT22;61000;48.120;11.548;2023-09-08T17:09:57;25.40;93.30
72865;DHT22;61000;48.120;11.548;2023-09-08T17:12:24;25.40;93.40
72865;DHT22;61000;48.120;11.548;2023-09-08T17:14:51;25.30;94.00
72865;DHT22;61000;48.120;11.548;2023-09-08T17:17:18;25.30;93.70
72865;DHT22;61000;48.120;11.548;2023-09-08T17:19:45;25.20;93.80
72865;DHT22;61000;48.120;11.548;2023-09-08T17:22:12;25.20;93.90
72865;DHT22;61000;48.120;11.548;2023-09-08T17:24:39;25.10;93.90
72865;DHT22;61000;48.120;11.548;2023-09-08T17:27:07;25.20;94.00
72865;DHT22;61000;48.120;11.548;2023-09-08T17:29:34;25.10;94.30
72865;DHT22;61000;48.120;11.548;2023-09-08T17:32:01;25.00;94.30
72865;DHT22;61000;48.120;11.548;2023-09-08T17:34:28;25.00;94.40
72865;DHT22;61000;48.120;11.548;2023-09-08T17:36:55;25.00;94.60
72865;DHT22;61000;48.120;11.548;2023-09-08T17:39:22;24.90;94.90
72865;DHT22;61000;48.120;11.548;2023-09-08T17:41:50;24.70;95.20
72865;DHT22;61000;48.120;11.548;2023-09-08T17:44:18;24.60;95.40
72865;DHT22;61000;48.120;11.548;2023-09-08T17:46:45;24.60;95.50
72865;DHT22;61000;48.120;11.548;2023-09-08T17:49:12;24.50;95.80
72865;DHT22;61000;48.120;11.548;2023-09-08T17:51:38;24.30;96.00
72865;DHT22;61000;48.120;11.548;2023-09-08T17:54:05;24.20;96.40
72865;DHT22;61000;48.120;11.548;2023-09-08T17:56:32;24.10;96.60
72865;DHT22;61000;48.120;11.548;2023-09-08T17:58:59;24.10;96.60
72865;DHT22;61000;48.120;11.548;2023-09-08T18:01:27;24.00;96.60
72865;DHT22;61000;48.120;11.548;2023-09-08T18:03:54;23.90;96.90
72865;DHT22;61000;48.120;11.548;2023-09-08T18:06:21;23.90;96.80
72865;DHT22;61000;48.120;11.548;2023-09-08T18:08:48;23.80;96.80
72865;DHT22;61000;48.120;11.548;2023-09-08T18:11:17;23.70;97.10
72865;DHT22;61000;48.120;11.548;2023-09-08T18:13:46;23.70;97.10
72865;DHT22;61000;48.120;11.548;2023-09-08T18:16:13;23.60;97.30
72865;DHT22;61000;48.120;11.548;2023-09-08T18:18:42;23.60;97.40
72865;DHT22;61000;48.120;11.548;2023-09-08T18:21:11;23.50;97.60
72865;DHT22;61000;48.120;11.548;2023-09-08T18:23:40;23.50;97.70
72865;DHT22;61000;48.120;11.548;2023-09-08T18:26:07;23.50;97.80
72865;DHT22;61000;48.120;11.548;2023-09-08T18:28:34;23.40;98.00
72865;DHT22;61000;48.120;11.548;2023-09-08T18:31:01;23.30;98.10
72865;DHT22;61000;48.120;11.548;2023-09-08T18:33:28;23.20;98.70
72865;DHT22;61000;48.120;11.548;2023-09-08T18:35:56;23.20;98.70
72865;DHT22;61000;48.120;11.548;2023-09-08T18:38:23;23.10;98.80
72865;DHT22;61000;48.120;11.548;2023-09-08T18:40:50;23.10;99.00
72865;DHT22;61000;48.120;11.548;2023-09-08T18:43:17;23.00;99.10
72865;DHT22;61000;48.120;11.548;2023-09-08T18:45:45;23.00;99.20
72865;DHT22;61000;48.120;11.548;2023-09-08T18:48:12;22.90;99.40
72865;DHT22;61000;48.120;11.548;2023-09-08T18:50:38;22.90;99.50
72865;DHT22;61000;48.120;11.548;2023-09-08T18:53:07;22.90;99.40
72865;DHT22;61000;48.120;11.548;2023-09-08T18:55:34;22.90;99.40
72865;DHT22;61000;48.120;11.548;2023-09-08T18:58:01;22.90;99.30
72865;DHT22;61000;48.120;11.548;2023-09-08T19:00:29;23.00;99.30
72865;DHT22;61000;48.120;11.548;2023-09-08T19:02:56;23.00;99.50
72865;DHT22;61000;48.120;11.548;2023-09-08T19:05:23;22.90;99.60
72865;DHT22;61000;48.120;11.548;2023-09-08T19:07:50;22.90;99.70
72865;DHT22;61000;48.120;11.548;2023-09-08T19:10:18;22.80;99.80
72865;DHT22;61000;48.120;11.548;2023-09-08T19:12:45;22.80;99.90
72865;DHT22;61000;48.120;11.548;2023-09-08T19:15:12;22.80;99.90
72865;DHT22;61000;48.120;11.548;2023-09-08T19:17:39;22.70;99.90
72865;DHT22;61000;48.120;11.548;2023-09-08T19:20:07;22.70;99.90
72865;DHT22;61000;48.120;11.548;2023-09-08T19:22:34;22.70;99.90
72865;DHT22;61000;48.120;11.548;2023-09-08T19:25:01;22.70;99.80
72865;DHT22;61000;48.120;11.548;2023-09-08T19:27:29;22.70;99.80
72865;DHT22;61000;48.120;11.548;2023-09-08T19:29:57;22.60;99.80
72865;DHT22;61000;48.120;11.548;2023-09-08T19:32:24;22.60;99.80
72865;DHT22;61000;48.120;11.548;2023-09-08T19:34:51;22.60;99.80
72865;DHT22;61000;48.120;11.548;2023-09-08T19:37:18;22.60;99.90
72865;DHT22;61000;48.120;11.548;2023-09-08T19:39:45;22.60;99.90
72865;DHT22;61000;48.120;11.548;2023-09-08T19:42:12;22.60;99.90
72865;DHT22;61000;48.120;11.548;2023-09-08T19:44:42;22.50;99.90
72865;DHT22;61000;48.120;11.548;2023-09-08T19:47:09;22.40;99.90
72865;DHT22;61000;48.120;11.548;2023-09-08T19:49:37;22.30;99.90
72865;DHT22;61000;48.120;11.548;2023-09-08T19:52:05;22.20;99.90